ENRS

Røst Airport

Norway
METAR ENRS 170750Z 16013KT 9999 SCT030 BKN045 03/M04 Q1017
Observed Flight Rules
Dec-17 @ 07:50 UTC (4 hours ago) Visual Flight Rules
Wind Visibility Clouds
160° at 13 knots 10,000+ meters
  • Scattered at 3,000' AGL
  • Broken at 4,500' AGL
Temperatures Readings
Current 3°C / 37°F
Dewpoint -4°C / 25°F
Humidity 60%
Altimeter 30.03" Hg
Pressure 1017 hPa
Elevation 4
METAR ENRS 170750Z 16013KT 9999 SCT030 BKN045 03/M04 Q1017
Observed Flight Rules
Dec-17 @ 07:50 UTC
(4 hours ago)
VFR
Wind Visibility
160° at 13 knots 10,000+ meters
Clouds
  • Scattered at 3,000' AGL
  • Broken at 4,500' AGL
Temperature Dewpoint
3°C / 37°F -4°C / 25°F
Humidity Altimeter Pressure
60% 30.03" Hg 1017 hPa